Time;durP1;ratioP1;P1;durP2;ratioP2;P2;SDS_P1;SDS_P2;PMS_P1;PMS_P2;Temp;Humidity;BMP_temperature;BMP_pressure;BME280_temperature;BME280_humidity;BME280_pressure;Samples;Min_cycle;Max_cycle;Signal;HPM_P1;HPM_P2
2020/12/13 00:03:42;;;;;;;33.20;20.92;;;;;;;1.32;100.00;99814.99;3527963;82;25721;-77
2020/12/13 00:08:43;;;;;;;30.93;19.00;;;;;;;1.25;100.00;99808.07;3528087;84;25823;-73
2020/12/13 00:13:44;;;;;;;31.73;20.83;;;;;;;1.19;100.00;99826.52;3527943;84;25896;-72
2020/12/13 00:18:45;;;;;;;26.57;19.13;;;;;;;1.28;100.00;99817.20;3528037;84;25796;-78
2020/12/13 00:23:46;;;;;;;28.63;19.13;;;;;;;1.35;100.00;99821.50;3528128;84;25737;-78
2020/12/13 00:28:48;;;;;;;23.23;15.67;;;;;;;1.36;100.00;99821.94;3528137;84;25823;-78
2020/12/13 00:33:49;;;;;;;28.17;19.20;;;;;;;1.21;100.00;99822.98;3528131;84;26259;-77
2020/12/13 00:38:51;;;;;;;28.13;18.33;;;;;;;1.14;100.00;99825.25;3528017;84;25870;-78
2020/12/13 00:43:52;;;;;;;20.43;16.57;;;;;;;1.23;100.00;99829.52;3528004;84;25882;-72
2020/12/13 00:48:53;;;;;;;25.53;17.37;;;;;;;1.31;100.00;99832.95;3528041;82;25816;-77
2020/12/13 00:53:54;;;;;;;23.67;17.63;;;;;;;1.24;100.00;99836.52;3527989;82;25919;-78
2020/12/13 00:58:55;;;;;;;23.87;16.40;;;;;;;1.24;100.00;99836.52;3528076;84;25824;-78
2020/12/13 01:03:56;;;;;;;25.33;16.43;;;;;;;1.14;100.00;99834.86;3527307;84;25785;-78
2020/12/13 01:08:58;;;;;;;26.20;16.87;;;;;;;1.18;100.00;99837.91;3526985;84;25839;-77
2020/12/13 01:14:00;;;;;;;25.77;17.33;;;;;;;1.27;100.00;99850.91;3527051;84;25802;-78
2020/12/13 01:19:02;;;;;;;23.87;17.03;;;;;;;1.36;100.00;99844.26;3527111;84;25882;-78
2020/12/13 01:24:03;;;;;;;25.87;17.87;;;;;;;1.45;100.00;99857.72;3527070;84;25852;-78
2020/12/13 01:29:04;;;;;;;25.47;17.00;;;;;;;1.31;100.00;99855.27;3527005;84;26324;-78
2020/12/13 01:34:09;;;;;;;26.40;17.53;;;;;;;1.30;100.00;99856.61;3526582;84;25873;-73
2020/12/13 01:39:10;;;;;;;24.13;16.93;;;;;;;1.30;100.00;99856.14;3526845;84;32491;-72
2020/12/13 01:44:11;;;;;;;23.17;17.13;;;;;;;1.41;100.00;99862.14;3527463;84;26381;-77
2020/12/13 01:49:13;;;;;;;24.77;17.17;;;;;;;1.43;100.00;99861.69;3527269;84;25785;-77
2020/12/13 01:54:15;;;;;;;24.40;16.77;;;;;;;1.43;100.00;99862.14;3526800;84;32485;-77
2020/12/13 01:59:20;;;;;;;27.00;16.67;;;;;;;1.35;100.00;99860.90;3527026;84;32455;-76
2020/12/13 02:04:23;;;;;;;27.73;17.07;;;;;;;1.35;100.00;99866.15;3527763;84;26285;-78
2020/12/13 02:09:25;;;;;;;26.30;18.67;;;;;;;1.35;100.00;99866.15;3528103;83;32474;-76
2020/12/13 02:14:26;;;;;;;24.27;16.90;;;;;;;1.38;100.00;99860.88;3527703;82;32583;-77
2020/12/13 02:19:28;;;;;;;28.10;18.23;;;;;;;1.37;100.00;99860.45;3527972;84;33000;-77
2020/12/13 02:24:29;;;;;;;23.90;17.73;;;;;;;1.38;100.00;99864.81;3527854;83;32974;-77
2020/12/13 02:29:30;;;;;;;22.47;16.93;;;;;;;1.31;100.00;99868.39;3527983;82;26449;-77
2020/12/13 02:34:31;;;;;;;23.18;15.70;;;;;;;1.37;100.00;99864.39;3527860;84;25736;-77
2020/12/13 02:39:32;;;;;;;23.77;16.77;;;;;;;1.38;100.00;99863.50;3527901;84;25761;-78
2020/12/13 02:44:33;;;;;;;24.10;17.20;;;;;;;1.43;100.00;99874.83;3527998;84;25777;-77
2020/12/13 02:49:34;;;;;;;28.50;18.53;;;;;;;1.41;100.00;99874.42;3528038;84;25817;-77
2020/12/13 02:54:36;;;;;;;24.23;16.17;;;;;;;1.42;100.00;99878.78;3528024;84;25976;-77
2020/12/13 02:59:37;;;;;;;21.70;14.87;;;;;;;1.34;100.00;99876.22;3528050;82;25890;-76
2020/12/13 03:04:38;;;;;;;23.77;16.53;;;;;;;1.41;100.00;99880.52;3527861;82;25826;-76
2020/12/13 03:09:39;;;;;;;21.87;15.53;;;;;;;1.40;100.00;99885.80;3528285;84;25779;-77
2020/12/13 03:14:40;;;;;;;22.07;15.20;;;;;;;1.38;100.00;99890.19;3528188;84;25813;-76
2020/12/13 03:19:41;;;;;;;20.33;14.80;;;;;;;1.31;100.00;99893.77;3528264;84;25785;-76
2020/12/13 03:24:42;;;;;;;22.47;15.07;;;;;;;1.37;100.00;99892.42;3528230;84;25819;-76
2020/12/13 03:29:45;;;;;;;21.90;15.07;;;;;;;1.35;100.00;99898.98;3528548;84;25829;-76
2020/12/13 03:34:46;;;;;;;19.63;15.60;;;;;;;1.41;100.00;99909.42;3527938;84;26211;-74
2020/12/13 03:39:46;;;;;;;23.17;14.57;;;;;;;1.37;100.00;99909.49;3528174;82;25828;-76
2020/12/13 03:44:47;;;;;;;19.55;13.25;;;;;;;1.30;100.00;99906.05;3528067;84;25788;-77
2020/12/13 03:49:48;;;;;;;18.27;12.90;;;;;;;1.32;100.00;99909.95;3528092;84;25780;-77
2020/12/13 03:54:49;;;;;;;18.07;13.53;;;;;;;1.35;100.00;99909.94;3528048;84;26183;-77
2020/12/13 03:59:50;;;;;;;20.77;14.03;;;;;;;1.42;100.00;99917.73;3528186;84;26246;-76
2020/12/13 04:04:51;;;;;;;15.40;12.00;;;;;;;1.36;100.00;99920.42;3527431;84;26348;-77
2020/12/13 04:09:52;;;;;;;14.90;11.00;;;;;;;1.31;100.00;99922.23;3527119;84;33201;-77
2020/12/13 04:14:53;;;;;;;15.57;10.80;;;;;;;1.30;100.00;99928.82;3526901;84;33223;-72
2020/12/13 04:19:54;;;;;;;14.67;10.60;;;;;;;1.38;100.00;99926.97;3527224;84;33183;-72
2020/12/13 04:24:55;;;;;;;14.17;11.40;;;;;;;1.35;100.00;99925.24;3527191;84;25857;-76
2020/12/13 04:29:56;;;;;;;18.47;12.77;;;;;;;1.34;100.00;99930.06;3527872;84;25848;-77
2020/12/13 04:34:57;;;;;;;17.33;11.73;;;;;;;1.33;100.00;99924.84;3527130;84;25839;-77
2020/12/13 04:39:58;;;;;;;15.13;11.10;;;;;;;1.23;100.00;99927.99;3527136;84;26005;-77
2020/12/13 04:45:00;;;;;;;15.73;11.13;;;;;;;1.34;100.00;99927.44;3527068;84;25867;-77
2020/12/13 04:50:04;;;;;;;16.90;13.17;;;;;;;1.47;100.00;99927.34;3527006;84;26326;-76
2020/12/13 04:55:06;;;;;;;17.17;11.97;;;;;;;1.45;100.00;99926.48;3527190;84;33257;-76
2020/12/13 05:00:07;;;;;;;15.47;11.80;;;;;;;1.34;100.00;99926.13;3527103;84;25795;-79
2020/12/13 05:05:11;;;;;;;21.00;14.47;;;;;;;1.30;100.00;99932.77;3527645;84;25707;-77
2020/12/13 05:10:12;;;;;;;17.83;12.10;;;;;;;1.21;100.00;99933.27;3527306;84;33688;-77
2020/12/13 05:15:13;;;;;;;13.90;11.10;;;;;;;1.23;100.00;99933.25;3528243;82;25810;-77
2020/12/13 05:20:18;;;;;;;15.83;12.93;;;;;;;1.22;100.00;99944.20;3528537;84;25852;-76
2020/12/13 05:25:19;;;;;;;14.63;11.20;;;;;;;1.25;100.00;99944.16;3528147;84;25930;-72
2020/12/13 05:30:28;;;;;;;14.80;11.77;;;;;;;1.26;100.00;99941.11;3527904;84;25853;-72
2020/12/13 05:35:29;;;;;;;14.63;11.23;;;;;;;1.19;100.00;99948.16;3528420;84;33143;-77
2020/12/13 05:40:31;;;;;;;15.33;11.00;;;;;;;1.24;100.00;99953.38;3532020;84;26176;-78
2020/12/13 05:45:50;;;;;;;14.20;11.23;;;;;;;1.22;100.00;99959.95;3532396;84;25818;-77
2020/12/13 05:56:03;;;;;;;14.07;10.33;;;;;;;1.42;100.00;99963.70;3527888;84;33190;-77
2020/12/13 06:01:05;;;;;;;12.80;10.13;;;;;;;1.31;100.00;99968.19;3528418;84;33736;-77
2020/12/13 06:06:10;;;;;;;14.77;10.07;;;;;;;1.25;100.00;99965.17;3528257;84;33675;-77
2020/12/13 06:11:13;;;;;;;12.00;9.28;;;;;;;1.16;100.00;99970.94;3528509;84;25824;-77
2020/12/13 06:16:14;;;;;;;12.67;9.27;;;;;;;1.23;100.00;99972.63;3528424;84;33567;-77
2020/12/13 06:21:16;;;;;;;10.33;9.20;;;;;;;1.27;100.00;99974.34;3528375;84;25932;-76
2020/12/13 06:26:17;;;;;;;11.20;9.47;;;;;;;1.25;100.00;99982.23;3528091;84;33177;-74
2020/12/13 06:31:19;;;;;;;10.70;9.30;;;;;;;1.28;100.00;99991.84;3528023;84;25804;-73
2020/12/13 06:36:25;;;;;;;13.37;10.43;;;;;;;1.19;100.00;99996.73;3527946;84;33677;-77
2020/12/13 06:41:27;;;;;;;;;;;;;;;1.18;100.00;100002.86;3530779;84;25935;-76
2020/12/13 06:46:29;;;;;;;11.47;9.90;;;;;;;1.32;100.00;100013.27;3528248;83;33214;-78
2020/12/13 06:51:36;;;;;;;11.63;9.43;;;;;;;1.26;100.00;100006.30;3528387;84;33103;-77
2020/12/13 06:56:39;;;;;;;11.70;9.97;;;;;;;1.37;100.00;100024.60;3528286;84;33187;-77
2020/12/13 07:01:43;;;;;;;10.87;8.97;;;;;;;1.23;100.00;100027.32;3528265;84;33680;-77
2020/12/13 07:06:45;;;;;;;12.83;10.00;;;;;;;1.20;100.00;100033.06;3525143;84;33226;-76
2020/12/13 07:11:48;;;;;;;11.03;9.47;;;;;;;1.18;100.00;100037.45;3524010;84;33155;-77
2020/12/13 07:17:07;;;;;;;12.57;9.10;;;;;;;1.22;100.00;100044.41;3524005;84;33557;-76
2020/12/13 07:22:11;;;;;;;11.57;9.77;;;;;;;1.27;100.00;100046.55;3524162;84;33137;-78
2020/12/13 07:27:12;;;;;;;12.60;10.70;;;;;;;1.23;100.00;100045.70;3523304;84;26151;-77
2020/12/13 07:32:13;;;;;;;12.57;11.23;;;;;;;1.23;100.00;100052.27;3524109;84;26031;-77
2020/12/13 07:37:17;;;;;;;14.53;11.83;;;;;;;1.19;100.00;100053.64;3524150;84;25806;-78
2020/12/13 07:42:18;;;;;;;16.00;13.23;;;;;;;1.20;100.00;100060.19;3524088;84;33759;-78
2020/12/13 07:47:21;;;;;;;15.97;12.93;;;;;;;1.20;100.00;100064.58;3524094;84;25818;-76
2020/12/13 07:52:22;;;;;;;17.00;13.10;;;;;;;1.19;100.00;100065.00;3524039;84;33211;-77
2020/12/13 07:57:23;;;;;;;16.93;13.43;;;;;;;1.13;100.00;100068.13;3503905;84;25968;-78
2020/12/13 08:02:25;;;;;;;18.60;13.70;;;;;;;1.17;100.00;100078.57;3477124;84;26288;-77
2020/12/13 08:07:28;;;;;;;18.40;14.50;;;;;;;1.18;100.00;100087.34;3469467;84;28596;-77
2020/12/13 08:12:33;;;;;;;19.70;14.40;;;;;;;1.17;100.00;100097.41;3488689;84;33571;-77
2020/12/13 08:17:37;;;;;;;19.35;14.53;;;;;;;1.14;100.00;100101.34;3469191;84;25827;-78
2020/12/13 08:22:40;;;;;;;20.53;13.47;;;;;;;1.20;100.00;100103.97;3464817;84;33291;-77
2020/12/13 08:27:43;;;;;;;18.20;14.03;;;;;;;1.24;100.00;100104.36;3524045;84;31812;-77
2020/12/13 08:32:44;;;;;;;19.20;14.90;;;;;;;1.23;100.00;100118.37;3518581;84;32324;-77
2020/12/13 08:37:58;;;;;;;19.33;13.77;;;;;;;1.25;100.00;100122.72;3524173;84;33824;-78
2020/12/13 08:42:59;;;;;;;15.83;13.13;;;;;;;1.25;100.00;100125.81;3523847;84;33569;-77
2020/12/13 08:48:03;;;;;;;17.87;13.43;;;;;;;1.30;100.00;100124.02;3495894;84;25860;-71
2020/12/13 08:53:22;;;;;;;17.23;13.60;;;;;;;1.27;100.00;100139.78;3462801;84;31513;-77
2020/12/13 08:58:23;;;;;;;18.07;13.23;;;;;;;1.32;100.00;100134.50;3464940;84;33021;-76
2020/12/13 09:03:30;;;;;;;18.37;13.63;;;;;;;1.23;100.00;100136.75;3465023;84;25812;-77
2020/12/13 09:08:31;;;;;;;19.03;13.17;;;;;;;1.24;100.00;100137.19;3509995;82;33442;-77
2020/12/13 09:13:33;;;;;;;17.00;12.87;;;;;;;1.26;100.00;100142.00;3528275;82;25875;-76
2020/12/13 09:18:35;;;;;;;21.53;14.23;;;;;;;1.33;100.00;100142.39;3566609;82;33701;-79
2020/12/13 09:23:36;;;;;;;16.23;12.93;;;;;;;1.35;100.00;100147.17;3519578;82;32047;-78
2020/12/13 09:28:37;;;;;;;18.10;13.20;;;;;;;1.26;100.00;100148.56;3562978;82;25763;-76
2020/12/13 09:33:38;;;;;;;16.67;13.07;;;;;;;1.25;100.00;100144.19;3504520;82;26255;-78
2020/12/13 09:38:39;;;;;;;18.23;13.17;;;;;;;1.37;100.00;100145.42;3527016;82;25883;-72
2020/12/13 09:43:40;;;;;;;19.83;13.83;;;;;;;1.37;100.00;100145.42;3547683;82;26479;-78
2020/12/13 09:48:41;;;;;;;19.80;14.77;;;;;;;1.35;100.00;100149.80;3517161;82;25983;-78
2020/12/13 09:53:42;;;;;;;17.90;12.07;;;;;;;1.35;100.00;100143.69;3527714;82;26271;-78
2020/12/13 09:58:45;;;;;;;18.43;12.47;;;;;;;1.26;100.00;100138.06;3544162;82;26385;-78
2020/12/13 10:03:49;;;;;;;18.63;12.60;;;;;;;1.28;100.00;100141.53;3544810;82;25749;-78
2020/12/13 10:14:02;;;;;;;17.60;13.60;;;;;;;1.32;100.00;100145.90;3533488;82;32603;-78
2020/12/13 10:19:04;;;;;;;19.37;13.07;;;;;;;1.38;100.00;100144.55;3533525;82;33203;-78
2020/12/13 10:24:06;;;;;;;19.47;13.10;;;;;;;1.40;100.00;100146.73;3531668;82;33195;-79
2020/12/13 10:29:08;;;;;;;20.03;12.87;;;;;;;1.35;100.00;100136.67;3528300;82;32119;-78
2020/12/13 10:34:14;;;;;;;16.67;11.63;;;;;;;1.30;100.00;100141.09;3557363;82;33156;-77
2020/12/13 10:39:19;;;;;;;17.50;11.90;;;;;;;1.34;100.00;100137.55;3560546;82;33452;-78
2020/12/13 10:44:21;;;;;;;17.87;12.13;;;;;;;1.42;100.00;100138.38;3532859;82;33107;-76
2020/12/13 10:49:22;;;;;;;16.43;12.03;;;;;;;1.49;100.00;100130.45;3545247;82;33370;-78
2020/12/13 10:54:23;;;;;;;17.47;12.83;;;;;;;1.41;100.00;100135.77;3492303;82;26620;-77
2020/12/13 10:59:24;;;;;;;16.80;12.07;;;;;;;1.37;100.00;100130.97;3561992;82;25867;-78
2020/12/13 11:04:25;;;;;;;12.83;10.07;;;;;;;1.34;100.00;100136.23;3536991;82;26074;-77
2020/12/13 11:09:26;;;;;;;15.83;10.67;;;;;;;1.40;100.00;100128.34;3520531;82;25973;-78
2020/12/13 11:14:27;;;;;;;15.47;11.83;;;;;;;1.37;100.00;100127.48;3531482;82;25893;-77
2020/12/13 11:19:28;;;;;;;12.40;10.00;;;;;;;1.36;100.00;100121.34;3503857;83;26006;-78
2020/12/13 11:24:29;;;;;;;13.30;10.40;;;;;;;1.25;100.00;100123.18;3490836;83;26270;-78
2020/12/13 11:29:30;;;;;;;14.77;12.17;;;;;;;1.30;100.00;100131.89;3514709;83;31098;-77
2020/12/13 11:34:31;;;;;;;15.77;10.80;;;;;;;1.25;100.00;100142.42;3529347;83;31137;-78
2020/12/13 11:39:34;;;;;;;12.75;10.13;;;;;;;1.34;100.00;100134.92;3511248;82;31040;-77
2020/12/13 11:44:35;;;;;;;16.40;12.03;;;;;;;1.32;100.00;100146.32;3527288;83;31435;-78
2020/12/13 11:49:37;;;;;;;13.43;10.37;;;;;;;1.34;100.00;100138.00;3506123;83;26014;-75
2020/12/13 11:54:38;;;;;;;13.57;11.13;;;;;;;1.28;100.00;100144.16;3508344;83;26284;-76
2020/12/13 11:59:39;;;;;;;12.37;10.37;;;;;;;1.29;100.00;100143.28;3502313;83;25855;-77
2020/12/13 12:04:40;;;;;;;12.00;9.47;;;;;;;1.29;100.00;100147.22;3516742;83;26455;-75
2020/12/13 12:09:41;;;;;;;12.20;9.23;;;;;;;1.25;100.00;100146.36;3545841;82;25810;-72
2020/12/13 12:14:42;;;;;;;12.07;10.53;;;;;;;1.35;100.00;100152.43;3501785;82;25868;-75
2020/12/13 12:19:43;;;;;;;13.90;11.07;;;;;;;1.35;100.00;100153.73;3500379;83;25810;-77
2020/12/13 12:24:45;;;;;;;12.40;10.10;;;;;;;1.30;100.00;100155.98;3522310;82;26107;-74
2020/12/13 12:29:46;;;;;;;14.77;10.33;;;;;;;1.19;100.00;100157.36;3540540;83;27800;-77
2020/12/13 12:34:47;;;;;;;12.78;9.85;;;;;;;1.22;100.00;100159.53;3531600;83;25903;-75
2020/12/13 12:39:48;;;;;;;14.97;10.50;;;;;;;1.23;100.00;100156.45;3493526;83;25972;-76
2020/12/13 12:44:50;;;;;;;12.60;11.20;;;;;;;1.22;100.00;100162.57;3507546;83;25832;-77
2020/12/13 12:49:50;;;;;;;17.60;12.80;;;;;;;1.25;100.00;100170.45;3536439;83;26237;-72
2020/12/13 12:54:51;;;;;;;15.03;11.28;;;;;;;1.25;100.00;100171.77;3483028;83;34892;-76
2020/12/13 13:00:21;;;;;;;18.57;13.23;;;;;;;1.13;100.00;100180.56;3458820;83;34987;-76
2020/12/13 13:05:03;;;;;;;16.23;12.60;;;;;;;1.05;100.00;100188.91;3448189;85;25928;-77
2020/12/13 13:15:25;;;;;;;14.60;12.33;;;;;;;1.23;100.00;100187.95;3468912;85;31437;-76
2020/12/13 13:20:20;;;;;;;19.63;14.40;;;;;;;1.30;100.00;100190.13;3466652;85;31007;-76
2020/12/13 13:25:21;;;;;;;23.63;16.47;;;;;;;1.21;100.00;100194.96;3467842;84;26265;-76
2020/12/13 13:30:22;;;;;;;21.85;16.82;;;;;;;1.18;100.00;100196.31;3468335;85;25809;-77
2020/12/13 13:35:23;;;;;;;17.33;13.93;;;;;;;1.19;100.00;100199.37;3468231;85;25755;-70
2020/12/13 13:40:24;;;;;;;20.60;16.20;;;;;;;1.25;100.00;100203.27;3468233;85;25780;-73
2020/12/13 13:50:30;;;;;;;22.87;16.20;;;;;;;1.29;100.00;100219.44;3468197;85;31442;-77
2020/12/13 13:55:34;;;;;;;23.83;17.13;;;;;;;1.20;100.00;100224.30;3467511;85;31000;-76
2020/12/13 14:00:34;;;;;;;19.13;14.90;;;;;;;1.22;100.00;100230.84;3467677;85;30996;-78
2020/12/13 14:06:26;;;;;;;19.53;14.13;;;;;;;1.19;100.00;100236.13;3468375;85;25827;-77
2020/12/13 14:10:46;;;;;;;23.00;16.63;;;;;;;1.15;100.00;100250.13;3438959;85;30953;-78
2020/12/13 14:15:47;;;;;;;19.43;14.77;;;;;;;1.18;100.00;100247.51;3468235;84;31554;-77
2020/12/13 14:20:48;;;;;;;19.63;15.07;;;;;;;1.03;100.00;100261.13;3468335;84;25884;-76
2020/12/13 14:25:52;;;;;;;22.00;16.10;;;;;;;1.03;100.00;100261.13;3468161;85;25776;-65
2020/12/13 14:30:52;;;;;;;22.27;16.47;;;;;;;0.95;100.00;100266.83;3467727;85;31234;-64
2020/12/13 14:35:53;;;;;;;21.93;16.47;;;;;;;0.91;100.00;100279.53;3468026;85;25837;-65
2020/12/13 14:40:54;;;;;;;23.17;17.57;;;;;;;0.95;100.00;100281.27;3468125;85;26291;-65
2020/12/13 14:45:55;;;;;;;19.90;16.27;;;;;;;0.91;100.00;100275.60;3468333;85;28678;-77
2020/12/13 14:50:59;;;;;;;21.93;16.37;;;;;;;0.92;100.00;100273.38;3468239;85;25770;-77
2020/12/13 14:56:04;;;;;;;21.07;15.10;;;;;;;0.87;100.00;100278.67;3468431;85;30952;-77
2020/12/13 15:01:05;;;;;;;16.73;13.55;;;;;;;0.77;100.00;100281.75;3469474;85;25837;-78
2020/12/13 15:06:06;;;;;;;17.40;13.87;;;;;;;0.85;100.00;100275.16;3470913;84;25872;-70
2020/12/13 15:11:07;;;;;;;23.43;17.47;;;;;;;1.00;100.00;100277.32;3469370;85;25826;-78
2020/12/13 15:21:17;;;;;;;22.73;16.10;;;;;;;0.84;100.00;100282.59;3426226;85;31452;-76
2020/12/13 15:26:18;;;;;;;19.27;13.40;;;;;;;0.71;100.00;100283.05;3468540;85;25832;-76
2020/12/13 15:31:19;;;;;;;21.07;16.10;;;;;;;0.70;100.00;100282.64;3468879;85;25849;-76
2020/12/13 15:36:20;;;;;;;22.70;17.67;;;;;;;0.83;100.00;100279.98;3469084;85;25713;-77
2020/12/13 15:41:21;;;;;;;21.83;16.67;;;;;;;0.87;100.00;100283.92;3468439;84;25837;-77
2020/12/13 15:46:22;;;;;;;23.73;17.33;;;;;;;0.86;100.00;100287.84;3468558;85;34900;-77
2020/12/13 15:51:23;;;;;;;20.00;14.57;;;;;;;0.87;100.00;100296.15;3468582;85;35490;-76
2020/12/13 15:56:24;;;;;;;20.37;15.07;;;;;;;0.83;100.00;100296.59;3468413;85;35472;-79
2020/12/13 16:01:28;;;;;;;24.87;17.02;;;;;;;0.92;100.00;100300.52;3484713;84;35291;-76
2020/12/13 16:06:30;;;;;;;18.50;15.10;;;;;;;1.04;100.00;100309.23;3466808;79;41995;-74
2020/12/13 16:11:30;;;;;;;18.80;14.50;;;;;;;0.99;100.00;100307.93;3534320;81;44018;-76
2020/12/13 16:16:38;;;;;;;19.77;15.37;;;;;;;0.90;100.00;100321.09;3536529;83;25756;-76
2020/12/13 16:21:39;;;;;;;18.53;14.57;;;;;;;0.92;100.00;100322.83;3536510;83;31424;-76
2020/12/13 16:26:40;;;;;;;22.90;17.67;;;;;;;0.93;100.00;100327.63;3536541;83;25767;-76
2020/12/13 16:31:41;;;;;;;23.90;18.10;;;;;;;0.90;100.00;100323.72;3536741;83;25794;-75
2020/12/13 16:36:44;;;;;;;24.53;19.33;;;;;;;1.00;100.00;100322.80;3536690;83;26288;-77
2020/12/13 16:41:45;;;;;;;26.23;18.77;;;;;;;0.94;100.00;100323.71;3536761;83;30941;-76
2020/12/13 16:46:55;;;;;;;19.67;15.60;;;;;;;0.93;100.00;100335.09;3536505;83;31458;-77
2020/12/13 16:57:15;;;;;;;21.93;17.63;;;;;;;0.87;100.00;100336.83;3526024;83;31480;-75
2020/12/13 17:02:17;;;;;;;23.57;18.47;;;;;;;0.76;100.00;100352.16;3536490;83;25713;-74
2020/12/13 17:07:18;;;;;;;24.97;18.07;;;;;;;0.70;100.00;100350.86;3540132;83;25768;-73
2020/12/13 17:12:19;;;;;;;22.03;16.17;;;;;;;0.67;100.00;100352.61;3570968;83;26202;-73
2020/12/13 17:17:20;;;;;;;21.57;17.77;;;;;;;0.69;100.00;100349.10;3570295;81;25838;-76
2020/12/13 17:22:21;;;;;;;25.10;19.80;;;;;;;0.81;100.00;100358.73;3562776;82;25769;-77
2020/12/13 17:27:26;;;;;;;25.23;18.30;;;;;;;0.87;100.00;100355.20;3562588;83;25851;-76
2020/12/13 17:32:27;;;;;;;24.30;18.47;;;;;;;0.82;100.00;100360.90;3559630;82;33144;-76
2020/12/13 17:37:28;;;;;;;22.70;17.27;;;;;;;0.87;100.00;100361.34;3569131;82;31113;-76
2020/12/13 17:42:30;;;;;;;17.23;13.13;;;;;;;0.73;100.00;100365.72;3556239;82;25800;-78
2020/12/13 17:47:31;;;;;;;17.17;13.10;;;;;;;0.76;100.00;100357.83;3562935;83;26343;-77
2020/12/13 17:52:39;;;;;;;19.87;14.53;;;;;;;0.76;100.00;100359.14;3565312;83;25760;-77
2020/12/13 17:57:42;;;;;;;;;;;;;;;0.83;100.00;100362.20;3563616;83;25815;-77
2020/12/13 18:02:44;;;;;;;21.17;15.53;;;;;;;0.75;100.00;100364.84;3561875;82;30988;-77
2020/12/13 18:07:45;;;;;;;22.40;16.43;;;;;;;0.69;100.00;100368.78;3568045;82;31093;-76
2020/12/13 18:12:48;;;;;;;23.53;17.40;;;;;;;0.61;100.00;100365.28;3568965;82;26455;-77
2020/12/13 18:17:49;;;;;;;25.70;20.70;;;;;;;0.67;100.00;100375.77;3533059;83;30962;-76
2020/12/13 18:22:50;;;;;;;22.00;16.53;;;;;;;0.83;100.00;100381.02;3567640;83;25758;-77
2020/12/13 18:27:51;;;;;;;20.57;14.70;;;;;;;0.69;100.00;100389.77;3569678;82;25820;-77
2020/12/13 18:32:52;;;;;;;18.00;13.23;;;;;;;0.58;100.00;100387.14;3568830;82;26459;-77
2020/12/13 18:37:56;;;;;;;20.60;15.97;;;;;;;0.57;100.00;100389.74;3563308;82;25896;-79
2020/12/13 18:42:57;;;;;;;25.10;17.13;;;;;;;0.54;100.00;100395.86;3568039;83;31114;-77
2020/12/13 18:47:58;;;;;;;24.90;18.43;;;;;;;0.55;100.00;100402.86;3568541;82;26284;-75
2020/12/13 18:52:59;;;;;;;23.77;18.53;;;;;;;0.55;100.00;100409.42;3568911;82;26191;-77
2020/12/13 18:57:59;;;;;;;25.00;18.07;;;;;;;0.47;100.00;100404.18;3562656;82;25746;-74
2020/12/13 19:08:11;;;;;;;22.93;15.47;;;;;;;0.55;100.00;100408.11;3564023;82;31971;-77
2020/12/13 19:13:10;;;;;;;27.43;18.67;;;;;;;0.53;100.00;100408.98;3563853;82;31070;-77
2020/12/13 19:18:11;;;;;;;23.50;17.03;;;;;;;0.63;100.00;100425.20;3575791;83;26018;-77
2020/12/13 19:23:12;;;;;;;26.63;18.47;;;;;;;0.63;100.00;100417.32;3577236;82;25721;-76
2020/12/13 19:28:14;;;;;;;26.00;19.13;;;;;;;0.63;100.00;100423.43;3577217;82;26407;-76
2020/12/13 19:33:17;;;;;;;25.50;18.60;;;;;;;0.58;100.00;100420.35;3557927;83;26322;-76
2020/12/13 19:38:18;;;;;;;25.23;18.03;;;;;;;0.56;100.00;100433.92;3571781;82;30930;-76
2020/12/13 19:43:19;;;;;;;22.10;15.70;;;;;;;0.46;100.00;100435.20;3564866;82;26299;-76
2020/12/13 19:48:20;;;;;;;26.83;19.60;;;;;;;0.47;100.00;100435.66;3568194;82;26314;-77
2020/12/13 19:53:21;;;;;;;27.53;19.40;;;;;;;0.55;100.00;100434.80;3560303;83;25801;-77
2020/12/13 19:58:24;;;;;;;22.37;15.93;;;;;;;0.57;100.00;100433.92;3575801;82;25861;-77
2020/12/13 20:03:25;;;;;;;22.53;15.53;;;;;;;0.51;100.00;100438.27;3562880;82;31055;-77
2020/12/13 20:08:26;;;;;;;19.57;15.13;;;;;;;0.50;100.00;100444.37;3568793;82;25824;-77
2020/12/13 20:13:29;;;;;;;21.93;15.07;;;;;;;0.50;100.00;100444.37;3556229;82;25812;-78
2020/12/13 20:19:36;;;;;;;21.60;14.20;;;;;;;0.49;100.00;100450.08;3560125;82;31106;-77
2020/12/13 21:21:26;;;;;;;10.87;8.20;;;;;;;0.69;100.00;100466.28;3537591;83;31480;-78
2020/12/13 21:37:06;;;;;;;15.90;11.00;;;;;;;0.77;100.00;100482.92;3587125;82;25789;-74
2020/12/13 21:43:31;;;;;;;15.40;10.97;;;;;;;0.61;100.00;100488.13;3586568;81;30980;-77
2020/12/13 21:47:20;;;;;;;19.90;13.20;;;;;;;0.52;100.00;100497.73;3584625;82;30990;-77
2020/12/13 21:52:19;;;;;;;9.33;7.43;;;;;;;0.58;100.00;100496.02;3587415;82;31010;-79
2020/12/13 21:57:24;;;;;;;11.70;8.33;;;;;;;0.58;100.00;100500.37;3588160;82;31310;-77
2020/12/13 22:02:58;;;;;;;15.23;11.03;;;;;;;0.64;100.00;100501.69;3588405;82;25861;-76
2020/12/13 22:28:50;;;;;;;18.47;13.53;;;;;;;0.70;100.00;100516.16;3592527;82;31008;-77
2020/12/13 22:33:51;;;;;;;14.57;10.50;;;;;;;0.69;100.00;100515.72;3593228;82;25947;-77
2020/12/13 22:38:52;;;;;;;16.07;12.70;;;;;;;0.69;100.00;100522.70;3592656;82;25962;-77
2020/12/13 22:43:54;;;;;;;18.17;12.30;;;;;;;0.69;100.00;100527.53;3592803;82;25728;-76
2020/12/13 22:48:55;;;;;;;18.67;12.50;;;;;;;0.59;100.00;100533.61;3592516;82;25731;-78
2020/12/13 22:53:56;;;;;;;15.40;10.20;;;;;;;0.56;100.00;100530.55;3592621;82;25783;-77
2020/12/13 22:58:57;;;;;;;14.60;10.60;;;;;;;0.55;100.00;100528.78;3592663;82;25675;-77
2020/12/13 23:04:00;;;;;;;14.13;10.37;;;;;;;0.58;100.00;100531.84;3592605;82;25878;-77
2020/12/13 23:09:04;;;;;;;17.00;11.63;;;;;;;0.69;100.00;100531.87;3592409;81;31023;-77
2020/12/13 23:14:05;;;;;;;16.33;12.07;;;;;;;0.64;100.00;100527.92;3592575;82;31390;-77
2020/12/13 23:19:07;;;;;;;16.13;11.40;;;;;;;0.62;100.00;100531.01;3592660;82;25754;-77
2020/12/13 23:24:07;;;;;;;14.77;11.20;;;;;;;0.58;100.00;100527.50;3592812;82;25855;-77
2020/12/13 23:29:08;;;;;;;16.20;11.17;;;;;;;0.73;100.00;100527.96;3592929;82;25831;-77
2020/12/13 23:34:09;;;;;;;20.17;13.57;;;;;;;0.66;100.00;100524.02;3592922;82;25813;-77
2020/12/13 23:39:10;;;;;;;16.73;12.17;;;;;;;0.66;100.00;100527.51;3592760;82;25817;-78
2020/12/13 23:44:11;;;;;;;17.93;12.33;;;;;;;0.51;100.00;100528.77;3592931;82;35262;-73
2020/12/13 23:49:12;;;;;;;14.97;11.27;;;;;;;0.42;100.00;100516.05;3592644;82;35210;-72
2020/12/13 23:54:13;;;;;;;15.30;11.10;;;;;;;0.64;100.00;100518.75;3592773;82;35438;-77
2020/12/13 23:59:14;;;;;;;16.57;11.50;;;;;;;0.64;100.00;100516.13;3593730;82;25800;-78
